sensor_id;sensor_type;location;lat;lon;timestamp;P1;durP1;ratioP1;P2;durP2;ratioP2
51034;SDS011;37062;52.546;13.230;2023-05-10T00:01:42;6.60;;;4.22;;
51034;SDS011;37062;52.546;13.230;2023-05-10T00:04:10;5.82;;;4.57;;
51034;SDS011;37062;52.546;13.230;2023-05-10T00:06:39;8.80;;;4.38;;
51034;SDS011;37062;52.546;13.230;2023-05-10T00:09:07;7.97;;;4.90;;
51034;SDS011;37062;52.546;13.230;2023-05-10T00:11:35;5.70;;;4.30;;
51034;SDS011;37062;52.546;13.230;2023-05-10T00:14:03;7.53;;;4.78;;
51034;SDS011;37062;52.546;13.230;2023-05-10T00:16:31;6.60;;;4.20;;
51034;SDS011;37062;52.546;13.230;2023-05-10T00:19:01;8.02;;;4.53;;
51034;SDS011;37062;52.546;13.230;2023-05-10T00:21:29;6.28;;;4.32;;
51034;SDS011;37062;52.546;13.230;2023-05-10T00:23:58;7.85;;;4.30;;
51034;SDS011;37062;52.546;13.230;2023-05-10T00:26:26;6.15;;;4.30;;
51034;SDS011;37062;52.546;13.230;2023-05-10T00:28:55;6.78;;;4.22;;
51034;SDS011;37062;52.546;13.230;2023-05-10T00:31:24;4.88;;;4.38;;
51034;SDS011;37062;52.546;13.230;2023-05-10T00:33:53;6.60;;;4.57;;
51034;SDS011;37062;52.546;13.230;2023-05-10T00:36:24;5.13;;;4.63;;
51034;SDS011;37062;52.546;13.230;2023-05-10T00:38:52;4.57;;;4.05;;
51034;SDS011;37062;52.546;13.230;2023-05-10T00:41:20;5.25;;;4.65;;
51034;SDS011;37062;52.546;13.230;2023-05-10T00:43:49;6.47;;;4.38;;
51034;SDS011;37062;52.546;13.230;2023-05-10T00:46:17;6.93;;;4.35;;
51034;SDS011;37062;52.546;13.230;2023-05-10T00:48:46;5.43;;;4.60;;
51034;SDS011;37062;52.546;13.230;2023-05-10T00:51:15;6.25;;;4.50;;
51034;SDS011;37062;52.546;13.230;2023-05-10T00:53:45;6.32;;;4.60;;
51034;SDS011;37062;52.546;13.230;2023-05-10T00:56:13;5.93;;;4.10;;
51034;SDS011;37062;52.546;13.230;2023-05-10T00:58:42;5.78;;;4.22;;
51034;SDS011;37062;52.546;13.230;2023-05-10T01:01:10;6.45;;;4.80;;
51034;SDS011;37062;52.546;13.230;2023-05-10T01:03:39;7.05;;;4.78;;
51034;SDS011;37062;52.546;13.230;2023-05-10T01:06:08;6.60;;;4.75;;
51034;SDS011;37062;52.546;13.230;2023-05-10T01:08:37;7.32;;;4.70;;
51034;SDS011;37062;52.546;13.230;2023-05-10T01:11:07;6.28;;;4.68;;
51034;SDS011;37062;52.546;13.230;2023-05-10T01:13:36;6.72;;;4.68;;
51034;SDS011;37062;52.546;13.230;2023-05-10T01:16:06;6.13;;;4.75;;
51034;SDS011;37062;52.546;13.230;2023-05-10T01:18:36;5.38;;;4.88;;
51034;SDS011;37062;52.546;13.230;2023-05-10T01:21:09;8.57;;;4.78;;
51034;SDS011;37062;52.546;13.230;2023-05-10T01:27:14;6.25;;;4.78;;
51034;SDS011;37062;52.546;13.230;2023-05-10T01:30:18;7.40;;;5.00;;
51034;SDS011;37062;52.546;13.230;2023-05-10T01:33:12;7.10;;;5.30;;
51034;SDS011;37062;52.546;13.230;2023-05-10T01:35:47;7.78;;;4.90;;
51034;SDS011;37062;52.546;13.230;2023-05-10T01:38:21;5.78;;;4.80;;
51034;SDS011;37062;52.546;13.230;2023-05-10T01:41:00;5.78;;;4.63;;
51034;SDS011;37062;52.546;13.230;2023-05-10T01:43:40;6.05;;;4.97;;
51034;SDS011;37062;52.546;13.230;2023-05-10T01:46:20;9.50;;;4.90;;
51034;SDS011;37062;52.546;13.230;2023-05-10T01:48:57;6.65;;;5.00;;
51034;SDS011;37062;52.546;13.230;2023-05-10T01:51:31;6.00;;;4.95;;
51034;SDS011;37062;52.546;13.230;2023-05-10T01:54:06;7.45;;;4.75;;
51034;SDS011;37062;52.546;13.230;2023-05-10T01:56:35;5.55;;;5.05;;
51034;SDS011;37062;52.546;13.230;2023-05-10T01:59:08;6.22;;;5.43;;
51034;SDS011;37062;52.546;13.230;2023-05-10T02:01:40;5.28;;;4.75;;
51034;SDS011;37062;52.546;13.230;2023-05-10T02:04:11;5.43;;;4.65;;
51034;SDS011;37062;52.546;13.230;2023-05-10T02:06:44;5.75;;;4.80;;
51034;SDS011;37062;52.546;13.230;2023-05-10T02:09:14;5.40;;;4.90;;
51034;SDS011;37062;52.546;13.230;2023-05-10T02:11:45;5.95;;;5.35;;
51034;SDS011;37062;52.546;13.230;2023-05-10T02:14:16;5.25;;;4.75;;
51034;SDS011;37062;52.546;13.230;2023-05-10T02:16:46;5.90;;;4.45;;
51034;SDS011;37062;52.546;13.230;2023-05-10T02:19:17;5.47;;;4.90;;
51034;SDS011;37062;52.546;13.230;2023-05-10T02:21:47;7.32;;;5.47;;
51034;SDS011;37062;52.546;13.230;2023-05-10T02:24:18;5.97;;;5.30;;
51034;SDS011;37062;52.546;13.230;2023-05-10T02:26:47;7.70;;;4.95;;
51034;SDS011;37062;52.546;13.230;2023-05-10T02:29:17;6.03;;;5.13;;
51034;SDS011;37062;52.546;13.230;2023-05-10T02:31:46;6.25;;;4.90;;
51034;SDS011;37062;52.546;13.230;2023-05-10T02:34:16;7.22;;;4.88;;
51034;SDS011;37062;52.546;13.230;2023-05-10T02:36:45;5.38;;;4.80;;
51034;SDS011;37062;52.546;13.230;2023-05-10T02:39:13;6.50;;;4.93;;
51034;SDS011;37062;52.546;13.230;2023-05-10T02:41:43;7.82;;;5.18;;
51034;SDS011;37062;52.546;13.230;2023-05-10T02:44:14;6.93;;;5.07;;
51034;SDS011;37062;52.546;13.230;2023-05-10T02:46:45;8.43;;;5.28;;
51034;SDS011;37062;52.546;13.230;2023-05-10T02:49:14;5.18;;;4.38;;
51034;SDS011;37062;52.546;13.230;2023-05-10T02:51:47;6.70;;;4.88;;
51034;SDS011;37062;52.546;13.230;2023-05-10T02:54:19;5.20;;;4.57;;
51034;SDS011;37062;52.546;13.230;2023-05-10T02:56:53;7.40;;;4.82;;
51034;SDS011;37062;52.546;13.230;2023-05-10T02:59:26;5.45;;;4.72;;
51034;SDS011;37062;52.546;13.230;2023-05-10T03:01:54;6.10;;;4.68;;
51034;SDS011;37062;52.546;13.230;2023-05-10T03:04:23;6.82;;;5.20;;
51034;SDS011;37062;52.546;13.230;2023-05-10T03:06:54;6.35;;;4.95;;
51034;SDS011;37062;52.546;13.230;2023-05-10T03:09:23;5.57;;;4.57;;
51034;SDS011;37062;52.546;13.230;2023-05-10T03:11:55;7.35;;;4.78;;
51034;SDS011;37062;52.546;13.230;2023-05-10T03:14:39;5.70;;;5.00;;
51034;SDS011;37062;52.546;13.230;2023-05-10T03:17:18;7.93;;;5.70;;
51034;SDS011;37062;52.546;13.230;2023-05-10T03:19:54;8.05;;;4.45;;
51034;SDS011;37062;52.546;13.230;2023-05-10T03:22:25;11.93;;;5.30;;
51034;SDS011;37062;52.546;13.230;2023-05-10T03:24:58;6.25;;;5.15;;
51034;SDS011;37062;52.546;13.230;2023-05-10T03:27:32;5.43;;;4.22;;
51034;SDS011;37062;52.546;13.230;2023-05-10T03:30:03;6.68;;;4.45;;
51034;SDS011;37062;52.546;13.230;2023-05-10T03:32:33;6.70;;;4.43;;
51034;SDS011;37062;52.546;13.230;2023-05-10T03:35:07;10.95;;;4.97;;
51034;SDS011;37062;52.546;13.230;2023-05-10T03:37:36;9.20;;;4.90;;
51034;SDS011;37062;52.546;13.230;2023-05-10T03:40:05;7.93;;;4.80;;
51034;SDS011;37062;52.546;13.230;2023-05-10T03:42:36;8.55;;;4.95;;
51034;SDS011;37062;52.546;13.230;2023-05-10T03:45:05;8.23;;;4.72;;
51034;SDS011;37062;52.546;13.230;2023-05-10T03:47:34;7.05;;;4.28;;
51034;SDS011;37062;52.546;13.230;2023-05-10T03:50:04;6.15;;;4.60;;
51034;SDS011;37062;52.546;13.230;2023-05-10T03:52:35;6.80;;;4.78;;
51034;SDS011;37062;52.546;13.230;2023-05-10T03:55:05;7.03;;;4.55;;
51034;SDS011;37062;52.546;13.230;2023-05-10T03:57:34;4.65;;;4.10;;
51034;SDS011;37062;52.546;13.230;2023-05-10T04:00:02;5.95;;;4.97;;
51034;SDS011;37062;52.546;13.230;2023-05-10T04:02:39;5.60;;;4.43;;
51034;SDS011;37062;52.546;13.230;2023-05-10T04:05:16;6.57;;;4.20;;
51034;SDS011;37062;52.546;13.230;2023-05-10T04:07:44;5.68;;;4.07;;
51034;SDS011;37062;52.546;13.230;2023-05-10T04:10:14;7.82;;;4.30;;
51034;SDS011;37062;52.546;13.230;2023-05-10T04:12:43;6.05;;;4.20;;
51034;SDS011;37062;52.546;13.230;2023-05-10T04:15:11;5.30;;;3.90;;
51034;SDS011;37062;52.546;13.230;2023-05-10T04:17:40;6.70;;;4.72;;
51034;SDS011;37062;52.546;13.230;2023-05-10T04:20:08;7.32;;;4.35;;
51034;SDS011;37062;52.546;13.230;2023-05-10T04:22:38;7.97;;;4.50;;
51034;SDS011;37062;52.546;13.230;2023-05-10T04:25:07;5.43;;;4.38;;
51034;SDS011;37062;52.546;13.230;2023-05-10T04:27:36;8.65;;;4.53;;
51034;SDS011;37062;52.546;13.230;2023-05-10T04:30:05;8.57;;;4.20;;
51034;SDS011;37062;52.546;13.230;2023-05-10T04:32:34;8.90;;;4.20;;
51034;SDS011;37062;52.546;13.230;2023-05-10T04:35:02;7.18;;;4.20;;
51034;SDS011;37062;52.546;13.230;2023-05-10T04:37:31;10.85;;;4.03;;
51034;SDS011;37062;52.546;13.230;2023-05-10T04:40:00;5.10;;;3.92;;
51034;SDS011;37062;52.546;13.230;2023-05-10T04:42:29;8.40;;;4.05;;
51034;SDS011;37062;52.546;13.230;2023-05-10T04:44:57;9.07;;;4.97;;
51034;SDS011;37062;52.546;13.230;2023-05-10T04:47:25;6.95;;;4.13;;
51034;SDS011;37062;52.546;13.230;2023-05-10T04:49:54;9.75;;;3.95;;
51034;SDS011;37062;52.546;13.230;2023-05-10T04:52:22;6.80;;;4.25;;
51034;SDS011;37062;52.546;13.230;2023-05-10T04:54:50;4.60;;;3.65;;
51034;SDS011;37062;52.546;13.230;2023-05-10T04:57:19;7.95;;;4.10;;
51034;SDS011;37062;52.546;13.230;2023-05-10T04:59:48;5.55;;;3.33;;
51034;SDS011;37062;52.546;13.230;2023-05-10T05:02:16;6.07;;;3.90;;
51034;SDS011;37062;52.546;13.230;2023-05-10T05:04:44;5.25;;;3.80;;
51034;SDS011;37062;52.546;13.230;2023-05-10T05:07:13;5.78;;;4.10;;
51034;SDS011;37062;52.546;13.230;2023-05-10T05:09:41;6.53;;;4.20;;
51034;SDS011;37062;52.546;13.230;2023-05-10T05:12:09;8.57;;;3.88;;
51034;SDS011;37062;52.546;13.230;2023-05-10T05:14:42;4.72;;;3.70;;
51034;SDS011;37062;52.546;13.230;2023-05-10T05:17:10;7.63;;;3.90;;
51034;SDS011;37062;52.546;13.230;2023-05-10T05:19:38;4.10;;;3.65;;
51034;SDS011;37062;52.546;13.230;2023-05-10T05:22:06;5.30;;;3.72;;
51034;SDS011;37062;52.546;13.230;2023-05-10T05:24:35;7.50;;;3.90;;
51034;SDS011;37062;52.546;13.230;2023-05-10T05:27:04;8.20;;;4.13;;
51034;SDS011;37062;52.546;13.230;2023-05-10T05:29:33;6.60;;;4.10;;
51034;SDS011;37062;52.546;13.230;2023-05-10T05:32:03;6.90;;;3.70;;
51034;SDS011;37062;52.546;13.230;2023-05-10T05:34:32;8.45;;;3.58;;
51034;SDS011;37062;52.546;13.230;2023-05-10T05:37:00;8.07;;;3.85;;
51034;SDS011;37062;52.546;13.230;2023-05-10T05:39:29;11.68;;;4.00;;
51034;SDS011;37062;52.546;13.230;2023-05-10T05:41:57;9.05;;;3.70;;
51034;SDS011;37062;52.546;13.230;2023-05-10T05:44:25;6.57;;;3.53;;
51034;SDS011;37062;52.546;13.230;2023-05-10T05:46:55;8.05;;;3.42;;
51034;SDS011;37062;52.546;13.230;2023-05-10T05:49:24;12.60;;;3.65;;
51034;SDS011;37062;52.546;13.230;2023-05-10T05:51:52;7.65;;;3.55;;
51034;SDS011;37062;52.546;13.230;2023-05-10T05:54:21;7.13;;;3.20;;
51034;SDS011;37062;52.546;13.230;2023-05-10T05:56:49;12.25;;;3.70;;
51034;SDS011;37062;52.546;13.230;2023-05-10T05:59:17;10.50;;;3.65;;
51034;SDS011;37062;52.546;13.230;2023-05-10T06:01:45;9.05;;;3.38;;
51034;SDS011;37062;52.546;13.230;2023-05-10T06:04:13;4.18;;;2.90;;
51034;SDS011;37062;52.546;13.230;2023-05-10T06:06:43;4.47;;;3.00;;
51034;SDS011;37062;52.546;13.230;2023-05-10T06:09:11;6.57;;;3.08;;
51034;SDS011;37062;52.546;13.230;2023-05-10T06:11:40;6.70;;;3.50;;
51034;SDS011;37062;52.546;13.230;2023-05-10T06:14:08;6.05;;;3.22;;
51034;SDS011;37062;52.546;13.230;2023-05-10T06:16:36;5.78;;;2.90;;
51034;SDS011;37062;52.546;13.230;2023-05-10T06:19:04;5.68;;;3.60;;
51034;SDS011;37062;52.546;13.230;2023-05-10T06:21:33;4.45;;;3.25;;
51034;SDS011;37062;52.546;13.230;2023-05-10T06:24:02;5.10;;;3.17;;
51034;SDS011;37062;52.546;13.230;2023-05-10T06:26:31;5.15;;;3.17;;
51034;SDS011;37062;52.546;13.230;2023-05-10T06:28:59;9.00;;;3.67;;
51034;SDS011;37062;52.546;13.230;2023-05-10T06:31:28;6.20;;;3.63;;
51034;SDS011;37062;52.546;13.230;2023-05-10T06:33:56;5.82;;;2.92;;
51034;SDS011;37062;52.546;13.230;2023-05-10T06:36:24;9.10;;;3.33;;
51034;SDS011;37062;52.546;13.230;2023-05-10T06:38:53;6.15;;;3.28;;
51034;SDS011;37062;52.546;13.230;2023-05-10T06:41:23;10.00;;;2.75;;
51034;SDS011;37062;52.546;13.230;2023-05-10T06:43:51;5.00;;;3.20;;
51034;SDS011;37062;52.546;13.230;2023-05-10T06:46:19;8.07;;;3.10;;
51034;SDS011;37062;52.546;13.230;2023-05-10T06:48:48;3.83;;;2.80;;
51034;SDS011;37062;52.546;13.230;2023-05-10T06:51:16;5.28;;;2.95;;
51034;SDS011;37062;52.546;13.230;2023-05-10T06:53:44;8.02;;;2.80;;
51034;SDS011;37062;52.546;13.230;2023-05-10T06:56:12;4.07;;;2.55;;
51034;SDS011;37062;52.546;13.230;2023-05-10T06:58:42;6.57;;;2.67;;
51034;SDS011;37062;52.546;13.230;2023-05-10T07:01:10;6.65;;;3.00;;
51034;SDS011;37062;52.546;13.230;2023-05-10T07:03:38;8.00;;;2.90;;
51034;SDS011;37062;52.546;13.230;2023-05-10T07:06:07;6.43;;;2.63;;
51034;SDS011;37062;52.546;13.230;2023-05-10T07:08:50;3.38;;;2.35;;
51034;SDS011;37062;52.546;13.230;2023-05-10T07:11:19;3.38;;;2.63;;
51034;SDS011;37062;52.546;13.230;2023-05-10T07:13:48;4.85;;;2.70;;
51034;SDS011;37062;52.546;13.230;2023-05-10T07:16:16;5.93;;;2.95;;
51034;SDS011;37062;52.546;13.230;2023-05-10T07:18:44;4.75;;;2.47;;
51034;SDS011;37062;52.546;13.230;2023-05-10T07:21:13;4.13;;;2.80;;
51034;SDS011;37062;52.546;13.230;2023-05-10T07:23:41;6.07;;;3.20;;
51034;SDS011;37062;52.546;13.230;2023-05-10T07:26:10;5.00;;;3.53;;
51034;SDS011;37062;52.546;13.230;2023-05-10T07:28:38;4.88;;;2.90;;
51034;SDS011;37062;52.546;13.230;2023-05-10T07:31:08;3.50;;;2.55;;
51034;SDS011;37062;52.546;13.230;2023-05-10T07:33:36;7.32;;;3.03;;
51034;SDS011;37062;52.546;13.230;2023-05-10T07:36:05;5.90;;;2.90;;
51034;SDS011;37062;52.546;13.230;2023-05-10T07:38:33;3.42;;;2.58;;
51034;SDS011;37062;52.546;13.230;2023-05-10T07:41:04;4.25;;;2.58;;
51034;SDS011;37062;52.546;13.230;2023-05-10T07:43:33;5.35;;;2.97;;
51034;SDS011;37062;52.546;13.230;2023-05-10T07:46:01;6.22;;;3.40;;
51034;SDS011;37062;52.546;13.230;2023-05-10T07:48:30;4.95;;;3.13;;
51034;SDS011;37062;52.546;13.230;2023-05-10T07:50:59;5.15;;;2.42;;
51034;SDS011;37062;52.546;13.230;2023-05-10T07:53:27;5.25;;;2.80;;
51034;SDS011;37062;52.546;13.230;2023-05-10T07:55:57;6.38;;;2.95;;
51034;SDS011;37062;52.546;13.230;2023-05-10T07:58:26;4.63;;;2.90;;
51034;SDS011;37062;52.546;13.230;2023-05-10T08:00:54;6.55;;;2.80;;
51034;SDS011;37062;52.546;13.230;2023-05-10T08:03:22;4.13;;;2.80;;
51034;SDS011;37062;52.546;13.230;2023-05-10T08:05:52;6.07;;;2.80;;
51034;SDS011;37062;52.546;13.230;2023-05-10T08:08:20;4.45;;;2.50;;
51034;SDS011;37062;52.546;13.230;2023-05-10T08:10:50;12.27;;;2.78;;
51034;SDS011;37062;52.546;13.230;2023-05-10T08:13:18;7.18;;;2.80;;
51034;SDS011;37062;52.546;13.230;2023-05-10T08:15:46;4.50;;;2.60;;
51034;SDS011;37062;52.546;13.230;2023-05-10T08:18:14;6.63;;;2.42;;
51034;SDS011;37062;52.546;13.230;2023-05-10T08:20:42;8.15;;;2.45;;
51034;SDS011;37062;52.546;13.230;2023-05-10T08:23:13;6.38;;;2.80;;
51034;SDS011;37062;52.546;13.230;2023-05-10T08:25:41;3.28;;;2.40;;
51034;SDS011;37062;52.546;13.230;2023-05-10T08:28:10;6.47;;;2.50;;
51034;SDS011;37062;52.546;13.230;2023-05-10T08:30:38;2.88;;;2.00;;
51034;SDS011;37062;52.546;13.230;2023-05-10T08:33:06;4.57;;;2.30;;
51034;SDS011;37062;52.546;13.230;2023-05-10T08:35:34;6.15;;;3.20;;
51034;SDS011;37062;52.546;13.230;2023-05-10T08:38:03;4.22;;;2.58;;
51034;SDS011;37062;52.546;13.230;2023-05-10T08:40:34;3.47;;;2.42;;
51034;SDS011;37062;52.546;13.230;2023-05-10T08:43:04;6.53;;;2.63;;
51034;SDS011;37062;52.546;13.230;2023-05-10T08:45:35;5.05;;;2.90;;
51034;SDS011;37062;52.546;13.230;2023-05-10T08:48:05;4.85;;;2.80;;
51034;SDS011;37062;52.546;13.230;2023-05-10T08:50:35;3.90;;;2.40;;
51034;SDS011;37062;52.546;13.230;2023-05-10T08:53:05;5.88;;;2.42;;
51034;SDS011;37062;52.546;13.230;2023-05-10T08:55:38;6.00;;;2.58;;
51034;SDS011;37062;52.546;13.230;2023-05-10T08:58:08;5.00;;;2.78;;
51034;SDS011;37062;52.546;13.230;2023-05-10T09:00:37;6.65;;;2.60;;
51034;SDS011;37062;52.546;13.230;2023-05-10T09:03:05;7.30;;;2.97;;
51034;SDS011;37062;52.546;13.230;2023-05-10T09:05:33;4.22;;;2.88;;
51034;SDS011;37062;52.546;13.230;2023-05-10T09:08:03;3.88;;;2.28;;
51034;SDS011;37062;52.546;13.230;2023-05-10T09:10:33;5.53;;;2.47;;
51034;SDS011;37062;52.546;13.230;2023-05-10T09:13:04;7.55;;;2.60;;
51034;SDS011;37062;52.546;13.230;2023-05-10T09:15:33;4.65;;;2.50;;
51034;SDS011;37062;52.546;13.230;2023-05-10T09:18:01;3.30;;;2.17;;
51034;SDS011;37062;52.546;13.230;2023-05-10T09:20:30;4.88;;;4.05;;
51034;SDS011;37062;52.546;13.230;2023-05-10T09:22:58;4.85;;;2.40;;
51034;SDS011;37062;52.546;13.230;2023-05-10T09:25:26;4.25;;;2.40;;
51034;SDS011;37062;52.546;13.230;2023-05-10T09:27:55;8.65;;;2.83;;
51034;SDS011;37062;52.546;13.230;2023-05-10T09:30:24;5.90;;;2.50;;
51034;SDS011;37062;52.546;13.230;2023-05-10T09:32:54;4.85;;;2.47;;
51034;SDS011;37062;52.546;13.230;2023-05-10T09:35:23;10.80;;;3.33;;
51034;SDS011;37062;52.546;13.230;2023-05-10T09:37:56;4.88;;;2.85;;
51034;SDS011;37062;52.546;13.230;2023-05-10T09:40:25;7.78;;;3.05;;
51034;SDS011;37062;52.546;13.230;2023-05-10T09:42:55;4.00;;;2.75;;
51034;SDS011;37062;52.546;13.230;2023-05-10T09:45:26;4.32;;;2.45;;
51034;SDS011;37062;52.546;13.230;2023-05-10T09:47:55;4.70;;;2.78;;
51034;SDS011;37062;52.546;13.230;2023-05-10T09:50:25;5.47;;;2.90;;
51034;SDS011;37062;52.546;13.230;2023-05-10T09:52:55;5.35;;;2.72;;
51034;SDS011;37062;52.546;13.230;2023-05-10T09:55:25;7.30;;;2.58;;
51034;SDS011;37062;52.546;13.230;2023-05-10T09:58:06;4.15;;;2.50;;
51034;SDS011;37062;52.546;13.230;2023-05-10T10:00:39;4.78;;;2.72;;
51034;SDS011;37062;52.546;13.230;2023-05-10T10:03:11;11.07;;;3.50;;
51034;SDS011;37062;52.546;13.230;2023-05-10T10:05:41;7.90;;;2.95;;
51034;SDS011;37062;52.546;13.230;2023-05-10T10:08:11;2.83;;;2.38;;
51034;SDS011;37062;52.546;13.230;2023-05-10T10:10:40;5.25;;;2.42;;
51034;SDS011;37062;52.546;13.230;2023-05-10T10:13:11;5.72;;;2.30;;
51034;SDS011;37062;52.546;13.230;2023-05-10T10:15:42;7.43;;;2.35;;
51034;SDS011;37062;52.546;13.230;2023-05-10T10:18:12;9.00;;;2.45;;
51034;SDS011;37062;52.546;13.230;2023-05-10T10:20:43;3.63;;;2.25;;
51034;SDS011;37062;52.546;13.230;2023-05-10T10:23:12;5.40;;;2.65;;
51034;SDS011;37062;52.546;13.230;2023-05-10T10:25:43;6.95;;;3.58;;
51034;SDS011;37062;52.546;13.230;2023-05-10T10:28:16;4.72;;;2.30;;
51034;SDS011;37062;52.546;13.230;2023-05-10T10:30:55;5.82;;;2.75;;
51034;SDS011;37062;52.546;13.230;2023-05-10T10:33:33;5.30;;;2.58;;
51034;SDS011;37062;52.546;13.230;2023-05-10T10:36:07;8.23;;;2.55;;
51034;SDS011;37062;52.546;13.230;2023-05-10T10:38:36;3.83;;;2.70;;
51034;SDS011;37062;52.546;13.230;2023-05-10T10:41:09;3.95;;;2.45;;
51034;SDS011;37062;52.546;13.230;2023-05-10T10:43:39;5.90;;;2.58;;
51034;SDS011;37062;52.546;13.230;2023-05-10T10:46:13;5.63;;;2.60;;
51034;SDS011;37062;52.546;13.230;2023-05-10T10:48:47;6.90;;;3.10;;
51034;SDS011;37062;52.546;13.230;2023-05-10T10:51:16;5.47;;;3.03;;
51034;SDS011;37062;52.546;13.230;2023-05-10T10:53:44;4.85;;;2.63;;
51034;SDS011;37062;52.546;13.230;2023-05-10T10:56:15;8.52;;;2.55;;
51034;SDS011;37062;52.546;13.230;2023-05-10T10:58:51;5.85;;;2.97;;
51034;SDS011;37062;52.546;13.230;2023-05-10T11:01:21;14.65;;;3.00;;
51034;SDS011;37062;52.546;13.230;2023-05-10T11:06:47;3.85;;;2.60;;
51034;SDS011;37062;52.546;13.230;2023-05-10T11:09:15;4.40;;;2.50;;
51034;SDS011;37062;52.546;13.230;2023-05-10T11:11:50;4.07;;;2.28;;
51034;SDS011;37062;52.546;13.230;2023-05-10T11:14:22;6.97;;;2.95;;
51034;SDS011;37062;52.546;13.230;2023-05-10T11:16:51;6.13;;;2.75;;
51034;SDS011;37062;52.546;13.230;2023-05-10T11:19:20;4.45;;;2.70;;
51034;SDS011;37062;52.546;13.230;2023-05-10T11:21:48;2.90;;;2.50;;
51034;SDS011;37062;52.546;13.230;2023-05-10T11:24:18;3.25;;;2.65;;
51034;SDS011;37062;52.546;13.230;2023-05-10T11:26:49;4.75;;;2.13;;
51034;SDS011;37062;52.546;13.230;2023-05-10T11:29:18;8.10;;;2.42;;
51034;SDS011;37062;52.546;13.230;2023-05-10T11:31:46;6.03;;;2.25;;
51034;SDS011;37062;52.546;13.230;2023-05-10T11:34:26;5.60;;;2.33;;
51034;SDS011;37062;52.546;13.230;2023-05-10T11:36:56;4.15;;;2.20;;
51034;SDS011;37062;52.546;13.230;2023-05-10T11:39:25;3.85;;;2.50;;
51034;SDS011;37062;52.546;13.230;2023-05-10T11:41:54;4.55;;;2.40;;
51034;SDS011;37062;52.546;13.230;2023-05-10T11:44:23;3.15;;;2.10;;
51034;SDS011;37062;52.546;13.230;2023-05-10T11:46:57;4.20;;;2.20;;
51034;SDS011;37062;52.546;13.230;2023-05-10T11:49:27;3.63;;;2.20;;
51034;SDS011;37062;52.546;13.230;2023-05-10T11:52:03;8.75;;;2.38;;
51034;SDS011;37062;52.546;13.230;2023-05-10T11:54:31;6.55;;;2.33;;
51034;SDS011;37062;52.546;13.230;2023-05-10T11:57:01;5.15;;;2.60;;
51034;SDS011;37062;52.546;13.230;2023-05-10T11:59:29;8.50;;;2.65;;
51034;SDS011;37062;52.546;13.230;2023-05-10T12:01:57;3.72;;;1.80;;
51034;SDS011;37062;52.546;13.230;2023-05-10T12:04:26;8.25;;;2.35;;
51034;SDS011;37062;52.546;13.230;2023-05-10T12:06:56;6.32;;;1.88;;
51034;SDS011;37062;52.546;13.230;2023-05-10T12:09:25;5.45;;;2.10;;
51034;SDS011;37062;52.546;13.230;2023-05-10T12:11:56;3.72;;;2.15;;
51034;SDS011;37062;52.546;13.230;2023-05-10T12:14:24;7.15;;;2.40;;
51034;SDS011;37062;52.546;13.230;2023-05-10T12:16:52;5.93;;;2.13;;
51034;SDS011;37062;52.546;13.230;2023-05-10T12:19:20;3.83;;;2.03;;
51034;SDS011;37062;52.546;13.230;2023-05-10T12:21:50;6.30;;;2.30;;
51034;SDS011;37062;52.546;13.230;2023-05-10T12:24:18;4.22;;;2.28;;
51034;SDS011;37062;52.546;13.230;2023-05-10T12:26:47;5.93;;;2.78;;
51034;SDS011;37062;52.546;13.230;2023-05-10T12:29:16;3.78;;;2.40;;
51034;SDS011;37062;52.546;13.230;2023-05-10T12:31:50;3.58;;;2.20;;
51034;SDS011;37062;52.546;13.230;2023-05-10T12:34:26;5.63;;;2.17;;
51034;SDS011;37062;52.546;13.230;2023-05-10T12:36:59;7.15;;;2.40;;
51034;SDS011;37062;52.546;13.230;2023-05-10T12:39:37;8.35;;;2.50;;
51034;SDS011;37062;52.546;13.230;2023-05-10T12:42:06;3.47;;;2.22;;
51034;SDS011;37062;52.546;13.230;2023-05-10T12:44:35;3.67;;;2.30;;
51034;SDS011;37062;52.546;13.230;2023-05-10T12:47:03;3.33;;;2.35;;
51034;SDS011;37062;52.546;13.230;2023-05-10T12:49:32;3.28;;;2.40;;
51034;SDS011;37062;52.546;13.230;2023-05-10T12:52:01;5.47;;;2.45;;
51034;SDS011;37062;52.546;13.230;2023-05-10T12:54:30;5.47;;;2.40;;
51034;SDS011;37062;52.546;13.230;2023-05-10T12:56:58;3.65;;;2.45;;
51034;SDS011;37062;52.546;13.230;2023-05-10T12:59:27;6.72;;;2.40;;
51034;SDS011;37062;52.546;13.230;2023-05-10T13:01:56;9.55;;;3.63;;
51034;SDS011;37062;52.546;13.230;2023-05-10T13:04:25;7.35;;;2.50;;
51034;SDS011;37062;52.546;13.230;2023-05-10T13:06:53;4.15;;;2.15;;
51034;SDS011;37062;52.546;13.230;2023-05-10T13:09:26;3.58;;;2.10;;
51034;SDS011;37062;52.546;13.230;2023-05-10T13:11:55;4.82;;;2.40;;
51034;SDS011;37062;52.546;13.230;2023-05-10T13:14:23;8.80;;;2.30;;
51034;SDS011;37062;52.546;13.230;2023-05-10T13:16:52;7.35;;;2.25;;
51034;SDS011;37062;52.546;13.230;2023-05-10T13:19:21;3.67;;;2.35;;
51034;SDS011;37062;52.546;13.230;2023-05-10T13:21:49;4.18;;;2.92;;
51034;SDS011;37062;52.546;13.230;2023-05-10T13:24:17;4.53;;;2.42;;
51034;SDS011;37062;52.546;13.230;2023-05-10T13:26:47;4.85;;;2.60;;
51034;SDS011;37062;52.546;13.230;2023-05-10T13:29:15;4.22;;;2.38;;
51034;SDS011;37062;52.546;13.230;2023-05-10T13:31:44;6.97;;;3.00;;
51034;SDS011;37062;52.546;13.230;2023-05-10T13:34:13;3.88;;;2.25;;
51034;SDS011;37062;52.546;13.230;2023-05-10T13:36:41;6.15;;;2.50;;
51034;SDS011;37062;52.546;13.230;2023-05-10T13:39:09;9.82;;;3.08;;
51034;SDS011;37062;52.546;13.230;2023-05-10T13:41:37;4.05;;;2.47;;
51034;SDS011;37062;52.546;13.230;2023-05-10T13:44:07;4.25;;;2.53;;
51034;SDS011;37062;52.546;13.230;2023-05-10T13:46:35;4.35;;;2.50;;
51034;SDS011;37062;52.546;13.230;2023-05-10T13:49:04;4.28;;;2.20;;
51034;SDS011;37062;52.546;13.230;2023-05-10T13:51:33;5.18;;;2.00;;
51034;SDS011;37062;52.546;13.230;2023-05-10T13:54:02;6.63;;;2.60;;
51034;SDS011;37062;52.546;13.230;2023-05-10T13:56:30;3.10;;;2.22;;
51034;SDS011;37062;52.546;13.230;2023-05-10T13:58:58;3.65;;;1.98;;
51034;SDS011;37062;52.546;13.230;2023-05-10T14:01:29;2.10;;;2.00;;
51034;SDS011;37062;52.546;13.230;2023-05-10T14:03:58;2.30;;;2.03;;
51034;SDS011;37062;52.546;13.230;2023-05-10T14:06:27;4.80;;;2.47;;
51034;SDS011;37062;52.546;13.230;2023-05-10T14:08:55;3.03;;;2.38;;
51034;SDS011;37062;52.546;13.230;2023-05-10T14:11:23;4.35;;;2.75;;
51034;SDS011;37062;52.546;13.230;2023-05-10T14:13:51;3.85;;;3.50;;
51034;SDS011;37062;52.546;13.230;2023-05-10T14:16:20;6.78;;;2.30;;
51034;SDS011;37062;52.546;13.230;2023-05-10T14:18:50;2.88;;;1.92;;
51034;SDS011;37062;52.546;13.230;2023-05-10T14:21:18;4.50;;;1.92;;
51034;SDS011;37062;52.546;13.230;2023-05-10T14:23:46;8.43;;;2.40;;
51034;SDS011;37062;52.546;13.230;2023-05-10T14:26:14;4.95;;;2.33;;
51034;SDS011;37062;52.546;13.230;2023-05-10T14:28:42;7.28;;;2.47;;
51034;SDS011;37062;52.546;13.230;2023-05-10T14:31:11;3.53;;;2.20;;
51034;SDS011;37062;52.546;13.230;2023-05-10T14:33:40;5.55;;;2.45;;
51034;SDS011;37062;52.546;13.230;2023-05-10T14:36:10;3.53;;;2.00;;
51034;SDS011;37062;52.546;13.230;2023-05-10T14:38:38;4.40;;;2.13;;
51034;SDS011;37062;52.546;13.230;2023-05-10T14:41:07;4.18;;;2.10;;
51034;SDS011;37062;52.546;13.230;2023-05-10T14:43:37;2.97;;;2.30;;
51034;SDS011;37062;52.546;13.230;2023-05-10T14:46:05;4.47;;;2.10;;
51034;SDS011;37062;52.546;13.230;2023-05-10T14:48:33;4.32;;;2.20;;
51034;SDS011;37062;52.546;13.230;2023-05-10T14:51:01;2.83;;;2.40;;
51034;SDS011;37062;52.546;13.230;2023-05-10T14:53:32;2.83;;;2.33;;
51034;SDS011;37062;52.546;13.230;2023-05-10T14:56:01;7.40;;;2.28;;